MiSS Stacie — WDF5915 — position and weather

sailwx.info

Track history (hours):
 
Tides and Currents Weather Stations Pressure Air Temp Water Temp Dewpoint Dewpoint Depression Visibility Wind Speed Wind Dir Waves Ship Positions

MiSS Stacie

Owner: Crosby Marine Transportation LLC, Golden Meadow, LA. More information available from US FCC via Universal Licensing System and Coast Guard Vessel Documentation Center.

Last reported at 2015-Jan-30 05:26 UTC. Time now 2015-Feb-01 00:35 UTC.
Position N 29°35' W 090°36'.

Length 20 m; draft 2 m.

Type: Tug. MMSI: 367468640.

Date/timePositionNaut miles runAvg speedWind from/ knotsBaromVisibWave heightAir tempDewpointWater temp
2015-Jan-30 05:26N 29°35' W 090°36'0 0.0
2015-Jan-30 04:29N 29°35' W 090°36'0 0.0
2015-Jan-29 10:08N 29°35' W 090°36'0 0.0
2015-Jan-29 09:33N 29°35' W 090°36'0 0.0
2015-Jan-29 07:15N 29°35' W 090°36'0 0.0
2015-Jan-29 06:31N 29°35' W 090°36'0 0.0
2015-Jan-29 05:33N 29°35' W 090°36'0 0.0
2015-Jan-29 04:33N 29°35' W 090°36'0 0.0
2015-Jan-29 03:14N 29°35' W 090°36'  
2015-Jan-23 04:16N 29°35' W 090°58'5 6.9
2015-Jan-23 03:33N 29°37' W 091°03'6 6.3
2015-Jan-23 02:33N 29°41' W 091°09'5 5.4
2015-Jan-23 01:33N 29°39' W 091°15'7 6.8
2015-Jan-23 00:33N 29°39' W 091°22'7 6.3
2015-Jan-22 23:28N 29°41' W 091°30'7 6.4
2015-Jan-22 22:25N 29°45' W 091°36'  
Track history (hours):
 
Tides and Currents Weather Stations Pressure Air Temp Water Temp Dewpoint Dewpoint Depression Visibility Wind Speed Wind Dir Waves Ship Positions

MiSS Stacie

Owner: Crosby Marine Transportation LLC, Golden Meadow, LA. More information available from US FCC via Universal Licensing System and Coast Guard Vessel Documentation Center.

Last reported at 2015-Jan-30 05:26 UTC. Time now 2015-Feb-01 00:35 UTC.
Position N 29°35' W 090°36'.

Length 20 m; draft 2 m.

Type: Tug. MMSI: 367468640.

Date/timePositionNaut miles runAvg speedWind from/ knotsBaromVisibWave heightAir tempDewpointWater temp
2015-Jan-30 05:26N 29°35' W 090°36'0 0.0
2015-Jan-30 04:29N 29°35' W 090°36'0 0.0
2015-Jan-29 10:08N 29°35' W 090°36'0 0.0
2015-Jan-29 09:33N 29°35' W 090°36'0 0.0
2015-Jan-29 07:15N 29°35' W 090°36'0 0.0
2015-Jan-29 06:31N 29°35' W 090°36'0 0.0
2015-Jan-29 05:33N 29°35' W 090°36'0 0.0
2015-Jan-29 04:33N 29°35' W 090°36'0 0.0
2015-Jan-29 03:14N 29°35' W 090°36'  
2015-Jan-23 04:16N 29°35' W 090°58'5 6.9
2015-Jan-23 03:33N 29°37' W 091°03'6 6.3
2015-Jan-23 02:33N 29°41' W 091°09'5 5.4
2015-Jan-23 01:33N 29°39' W 091°15'7 6.8
2015-Jan-23 00:33N 29°39' W 091°22'7 6.3
2015-Jan-22 23:28N 29°41' W 091°30'7 6.4
2015-Jan-22 22:25N 29°45' W 091°36'  

Dump ship's entire track history